createdAt,value
2023-07-08T00:01:21.789Z,22.17
2023-07-08T00:03:50.153Z,22.22
2023-07-08T00:06:28.484Z,22.19
2023-07-08T00:08:56.523Z,22.14
2023-07-08T00:11:24.611Z,22.15
2023-07-08T00:13:51.805Z,22.12
2023-07-08T00:16:20.601Z,22.12
2023-07-08T00:18:49.761Z,22.10
2023-07-08T00:21:19.041Z,22.08
2023-07-08T00:23:52.465Z,22.07
2023-07-08T00:26:30.959Z,22.10
2023-07-08T00:29:00.809Z,22.10
2023-07-08T00:31:28.534Z,22.13
2023-07-08T00:33:57.681Z,22.18
2023-07-08T00:36:29.087Z,22.25
2023-07-08T00:38:57.804Z,22.27
2023-07-08T00:41:39.897Z,22.31
2023-07-08T00:44:12.669Z,22.29
2023-07-08T00:47:04.686Z,22.25
2023-07-08T00:49:48.452Z,22.18
2023-07-08T00:52:24.094Z,22.13
2023-07-08T00:55:10.149Z,22.00
2023-07-08T00:57:47.044Z,21.91
2023-07-08T01:00:18.267Z,21.84
2023-07-08T01:02:54.044Z,21.79
2023-07-08T01:05:26.803Z,21.75
2023-07-08T01:08:00.669Z,21.75
2023-07-08T01:10:54.287Z,21.75
2023-07-08T01:13:22.465Z,21.73
2023-07-08T01:15:50.248Z,21.73
2023-07-08T01:18:25.760Z,21.75
2023-07-08T01:20:56.395Z,21.77
2023-07-08T01:23:25.598Z,21.80
2023-07-08T01:25:53.168Z,21.89
2023-07-08T01:28:21.387Z,21.90
2023-07-08T01:30:50.548Z,21.92
2023-07-08T01:33:25.846Z,21.94
2023-07-08T01:35:53.653Z,21.96
2023-07-08T01:38:27.239Z,21.98
2023-07-08T01:40:58.807Z,21.97
2023-07-08T01:43:26.410Z,21.93
2023-07-08T01:45:54.855Z,21.93
2023-07-08T01:48:24.762Z,21.88
2023-07-08T01:51:05.780Z,21.84
2023-07-08T01:53:43.306Z,21.80
2023-07-08T01:56:13.835Z,21.80
2023-07-08T01:58:42.336Z,21.84
2023-07-08T02:01:10.536Z,21.85
2023-07-08T02:03:37.979Z,21.86
2023-07-08T02:06:06.302Z,21.85
2023-07-08T02:08:33.570Z,21.86
2023-07-08T02:11:00.925Z,21.84
2023-07-08T02:13:29.405Z,21.88
2023-07-08T02:15:56.693Z,21.87
2023-07-08T02:18:26.051Z,21.86
2023-07-08T02:20:53.413Z,21.84
2023-07-08T02:23:20.665Z,21.91
2023-07-08T02:25:56.896Z,21.91
2023-07-08T02:28:24.372Z,21.94
2023-07-08T02:30:51.591Z,21.91
2023-07-08T02:33:19.928Z,21.94
2023-07-08T02:35:47.127Z,21.99
2023-07-08T02:38:14.606Z,21.99
2023-07-08T02:40:42.586Z,21.99
2023-07-08T02:43:09.862Z,21.99
2023-07-08T02:45:37.838Z,22.03
2023-07-08T02:48:05.427Z,22.10
2023-07-08T02:50:33.164Z,22.06
2023-07-08T02:53:00.354Z,22.05
2023-07-08T02:55:27.591Z,22.06
2023-07-08T02:57:54.829Z,22.05
2023-07-08T03:00:22.045Z,22.06
2023-07-08T03:02:49.417Z,22.01
2023-07-08T03:05:16.768Z,22.00
2023-07-08T03:07:43.987Z,21.99
2023-07-08T03:10:11.173Z,21.96
2023-07-08T03:12:38.694Z,21.98
2023-07-08T03:15:07.676Z,21.96
2023-07-08T03:17:34.884Z,21.94
2023-07-08T03:20:02.101Z,21.87
2023-07-08T03:22:30.028Z,21.75
2023-07-08T03:24:57.202Z,21.63
2023-07-08T03:27:24.506Z,21.57
2023-07-08T03:29:52.394Z,21.47
2023-07-08T03:32:19.646Z,21.43
2023-07-08T03:34:46.951Z,21.40
2023-07-08T03:37:14.503Z,21.34
2023-07-08T03:39:41.758Z,21.31
2023-07-08T03:42:09.129Z,21.33
2023-07-08T03:44:36.414Z,21.27
2023-07-08T03:47:03.961Z,21.29
2023-07-08T03:49:31.272Z,21.27
2023-07-08T03:51:58.622Z,21.26
2023-07-08T03:54:26.504Z,21.24
2023-07-08T03:56:57.063Z,21.19
2023-07-08T03:59:26.410Z,21.17
2023-07-08T04:01:55.863Z,21.23
2023-07-08T04:04:24.860Z,21.22
2023-07-08T04:06:52.722Z,21.22
2023-07-08T04:09:19.995Z,21.24
2023-07-08T04:11:47.369Z,21.20
2023-07-08T04:14:14.688Z,21.17
2023-07-08T04:16:58.712Z,21.16
2023-07-08T04:19:28.289Z,21.17
2023-07-08T04:21:55.783Z,21.15
2023-07-08T04:24:22.965Z,21.17
2023-07-08T04:26:50.496Z,21.16
2023-07-08T04:29:22.173Z,21.19
2023-07-08T04:31:50.929Z,21.19
2023-07-08T04:34:18.811Z,21.24
2023-07-08T04:36:46.375Z,21.24
2023-07-08T04:39:14.458Z,21.26
2023-07-08T04:41:44.979Z,21.32
2023-07-08T04:44:12.480Z,21.33
2023-07-08T04:46:57.475Z,21.35
2023-07-08T04:49:25.721Z,21.34
2023-07-08T04:51:53.445Z,21.31
2023-07-08T04:54:20.792Z,21.31
2023-07-08T04:56:50.262Z,21.30
2023-07-08T04:59:22.924Z,21.36
2023-07-08T05:01:51.321Z,21.37
2023-07-08T05:04:22.684Z,21.39
2023-07-08T05:06:51.017Z,21.43
2023-07-08T05:09:18.907Z,21.47
2023-07-08T05:11:46.139Z,21.53
2023-07-08T05:14:14.668Z,21.55
2023-07-08T05:16:42.172Z,21.58
2023-07-08T05:19:09.883Z,21.57
2023-07-08T05:21:37.085Z,21.56
2023-07-08T05:24:06.461Z,21.58
2023-07-08T05:26:34.704Z,21.51
2023-07-08T05:29:01.981Z,21.48
2023-07-08T05:34:00.064Z,21.42
2023-07-08T05:36:27.250Z,21.51
2023-07-08T05:38:54.448Z,21.56
2023-07-08T05:41:21.654Z,21.65
2023-07-08T05:43:48.833Z,21.78
2023-07-08T05:46:16.161Z,21.89
2023-07-08T05:48:43.369Z,21.96
2023-07-08T05:51:10.564Z,22.03
2023-07-08T05:53:37.790Z,22.19
2023-07-08T05:56:05.706Z,22.23
2023-07-08T05:58:33.052Z,22.27
2023-07-08T06:01:01.052Z,22.36
2023-07-08T06:03:28.633Z,22.54
2023-07-08T06:05:55.904Z,22.69
2023-07-08T06:08:23.995Z,22.82
2023-07-08T06:10:52.044Z,22.96
2023-07-08T06:13:19.386Z,23.12
2023-07-08T06:15:46.657Z,23.40
2023-07-08T06:18:14.072Z,23.56
2023-07-08T06:20:41.484Z,23.61
2023-07-08T06:23:08.702Z,23.61
2023-07-08T06:25:35.951Z,23.58
2023-07-08T06:28:03.267Z,23.63
2023-07-08T06:30:30.457Z,23.62
2023-07-08T06:32:59.665Z,23.65
2023-07-08T06:35:28.674Z,23.64
2023-07-08T06:37:55.905Z,23.73
2023-07-08T06:40:23.094Z,23.71
2023-07-08T06:42:50.294Z,23.66
2023-07-08T06:45:24.401Z,23.63
2023-07-08T06:47:51.742Z,23.73
2023-07-08T06:50:19.090Z,23.87
2023-07-08T06:52:46.328Z,23.94
2023-07-08T06:55:14.215Z,24.09
2023-07-08T06:57:41.733Z,24.24
2023-07-08T07:00:12.453Z,24.36
2023-07-08T07:02:40.374Z,24.50
2023-07-08T07:05:08.323Z,24.66
2023-07-08T07:07:35.689Z,24.78
2023-07-08T07:10:04.555Z,24.65
2023-07-08T07:12:31.957Z,24.60
2023-07-08T07:14:59.205Z,24.59
2023-07-08T07:17:28.221Z,24.61
2023-07-08T07:19:56.028Z,24.67
2023-07-08T07:22:23.853Z,24.73
2023-07-08T07:24:51.238Z,24.67
2023-07-08T07:27:18.542Z,24.60
2023-07-08T07:29:50.487Z,24.58
2023-07-08T07:32:20.493Z,24.55
2023-07-08T07:34:49.877Z,24.65
2023-07-08T07:37:21.784Z,24.74
2023-07-08T07:39:49.702Z,24.75
2023-07-08T07:42:19.748Z,24.81
2023-07-08T07:44:47.470Z,24.92
2023-07-08T07:47:15.428Z,25.00
2023-07-08T07:49:42.584Z,25.02
2023-07-08T07:52:12.050Z,25.03
2023-07-08T07:54:40.345Z,25.21
2023-07-08T07:57:07.988Z,25.28
2023-07-08T07:59:35.238Z,25.36
2023-07-08T08:02:02.519Z,25.43
2023-07-08T08:04:29.805Z,25.48
2023-07-08T08:06:57.003Z,25.43
2023-07-08T08:09:24.210Z,25.50
2023-07-08T08:11:52.998Z,25.52
2023-07-08T08:14:20.264Z,25.62
2023-07-08T08:16:47.766Z,25.74
2023-07-08T08:19:15.219Z,25.84
2023-07-08T08:21:42.477Z,25.86
2023-07-08T08:24:09.674Z,26.02
2023-07-08T08:26:36.892Z,26.09
2023-07-08T08:29:04.111Z,26.13
2023-07-08T08:31:32.396Z,26.24
2023-07-08T08:33:59.938Z,26.24
2023-07-08T08:36:27.115Z,26.29
2023-07-08T08:38:54.526Z,26.44
2023-07-08T08:41:35.635Z,26.52
2023-07-08T08:44:06.929Z,26.63
2023-07-08T08:46:49.396Z,26.70
2023-07-08T08:49:28.728Z,26.71
2023-07-08T08:52:01.555Z,26.86
2023-07-08T08:54:31.235Z,26.85
2023-07-08T08:57:24.336Z,26.83
2023-07-08T08:59:56.267Z,26.87
2023-07-08T09:03:09.233Z,26.98
2023-07-08T09:05:36.661Z,26.98
2023-07-08T09:08:35.798Z,27.07
2023-07-08T09:11:46.678Z,27.56
2023-07-08T09:14:29.789Z,27.66
2023-07-08T09:17:37.932Z,27.53
2023-07-08T09:20:29.484Z,27.67
2023-07-08T09:23:24.764Z,27.06
2023-07-08T09:26:06.419Z,26.84
2023-07-08T09:28:46.401Z,27.08
2023-07-08T09:31:33.659Z,27.16
2023-07-08T09:34:23.667Z,27.11
2023-07-08T09:36:52.895Z,26.98
2023-07-08T09:39:21.826Z,27.26
2023-07-08T09:41:51.032Z,27.47
2023-07-08T09:44:30.010Z,27.76
2023-07-08T09:46:59.728Z,27.38
2023-07-08T09:49:36.533Z,27.41
2023-07-08T09:52:05.837Z,27.32
2023-07-08T09:54:33.743Z,27.31
2023-07-08T09:57:13.150Z,27.24
2023-07-08T09:59:58.101Z,27.52
2023-07-08T10:02:46.108Z,27.82
2023-07-08T10:05:36.053Z,27.81
2023-07-08T10:08:13.288Z,28.07
2023-07-08T10:10:40.514Z,28.32
2023-07-08T10:13:57.631Z,28.13
2023-07-08T10:16:36.233Z,28.21
2023-07-08T10:19:17.394Z,28.35
2023-07-08T10:22:21.509Z,28.27
2023-07-08T10:25:13.057Z,28.31
2023-07-08T10:28:31.555Z,28.32
2023-07-08T10:31:32.726Z,28.58
2023-07-08T10:35:00.421Z,28.77
2023-07-08T10:38:24.858Z,28.76
2023-07-08T10:42:05.004Z,28.81
2023-07-08T10:45:05.776Z,28.38
2023-07-08T10:48:51.913Z,28.49
2023-07-08T10:51:39.005Z,28.96
2023-07-08T10:54:27.791Z,28.84
2023-07-08T10:57:34.179Z,28.53
2023-07-08T11:00:34.312Z,28.79
2023-07-08T11:03:48.583Z,28.92
2023-07-08T11:07:06.568Z,28.69
2023-07-08T11:09:59.407Z,28.89
2023-07-08T11:12:51.906Z,29.21
2023-07-08T11:15:37.318Z,29.29
2023-07-08T11:18:35.970Z,29.48
2023-07-08T11:21:14.035Z,29.77
2023-07-08T11:23:51.852Z,29.82
2023-07-08T11:26:26.869Z,29.74
2023-07-08T11:28:59.834Z,29.70
2023-07-08T11:31:32.543Z,29.94
2023-07-08T11:34:01.815Z,32.44
2023-07-08T11:36:31.279Z,32.43
2023-07-08T11:38:58.809Z,35.07
2023-07-08T11:41:32.310Z,34.43
2023-07-08T11:44:05.559Z,36.40
2023-07-08T11:46:35.864Z,34.59
2023-07-08T11:49:15.290Z,34.91
2023-07-08T11:51:47.607Z,34.63
2023-07-08T11:54:32.308Z,33.46
2023-07-08T11:57:05.641Z,34.33
2023-07-08T11:59:41.879Z,34.48
2023-07-08T12:02:20.861Z,35.22
2023-07-08T12:05:14.937Z,35.83
2023-07-08T12:07:49.663Z,34.41
2023-07-08T12:10:52.594Z,32.95
2023-07-08T12:13:25.189Z,30.94
2023-07-08T12:15:53.715Z,31.25
2023-07-08T12:18:26.993Z,31.51
2023-07-08T12:21:00.724Z,31.10
2023-07-08T12:23:29.846Z,31.33
2023-07-08T12:25:59.089Z,30.70
2023-07-08T12:28:26.867Z,31.16
2023-07-08T12:30:56.257Z,32.53
2023-07-08T12:33:34.239Z,32.45
2023-07-08T12:36:03.613Z,31.01
2023-07-08T12:38:38.428Z,31.00
2023-07-08T12:41:21.781Z,31.48
2023-07-08T12:43:51.021Z,30.75
2023-07-08T12:46:22.931Z,31.03
2023-07-08T12:48:50.541Z,33.22
2023-07-08T12:51:27.946Z,34.57
2023-07-08T12:53:55.658Z,36.74
2023-07-08T12:56:24.925Z,36.36
2023-07-08T12:59:00.107Z,36.52
2023-07-08T13:01:33.451Z,37.41
2023-07-08T13:04:11.413Z,34.45
2023-07-08T13:06:40.366Z,32.18
2023-07-08T13:09:35.405Z,33.28
2023-07-08T13:12:25.554Z,33.88
2023-07-08T13:14:56.711Z,33.49
2023-07-08T13:17:24.984Z,33.64
2023-07-08T13:19:53.355Z,33.53
2023-07-08T13:22:23.634Z,35.79
2023-07-08T13:25:02.930Z,38.06
2023-07-08T13:27:30.371Z,39.40
2023-07-08T13:30:18.784Z,36.76
2023-07-08T13:32:55.293Z,39.22
2023-07-08T13:35:54.347Z,39.90
2023-07-08T13:38:36.434Z,40.62
2023-07-08T13:41:08.134Z,40.54
2023-07-08T13:43:40.317Z,40.86
2023-07-08T13:46:29.199Z,41.18
2023-07-08T13:48:56.417Z,40.96
2023-07-08T13:51:31.459Z,40.77
2023-07-08T13:54:25.626Z,41.17
2023-07-08T13:56:54.919Z,41.00
2023-07-08T13:59:27.288Z,41.45
2023-07-08T14:01:58.479Z,41.12
2023-07-08T14:04:35.433Z,40.66
2023-07-08T14:07:02.806Z,39.63
2023-07-08T14:09:30.042Z,40.63
2023-07-08T14:11:57.515Z,40.23
2023-07-08T14:14:24.681Z,40.61
2023-07-08T14:16:55.819Z,41.13
2023-07-08T14:19:31.069Z,40.57
2023-07-08T14:22:17.292Z,40.06
2023-07-08T14:24:45.664Z,38.18
2023-07-08T14:27:14.813Z,37.95
2023-07-08T14:29:43.162Z,37.39
2023-07-08T14:32:29.297Z,40.09
2023-07-08T14:35:20.404Z,38.28
2023-07-08T14:37:47.668Z,37.32
2023-07-08T14:40:37.871Z,34.99
2023-07-08T14:43:11.819Z,36.64
2023-07-08T14:45:49.574Z,38.43
2023-07-08T14:48:18.477Z,37.11
2023-07-08T14:50:46.232Z,37.85
2023-07-08T14:53:19.647Z,38.09
2023-07-08T14:55:53.284Z,38.65
2023-07-08T14:58:30.735Z,36.36
2023-07-08T15:01:11.639Z,38.48
2023-07-08T15:03:39.032Z,38.86
2023-07-08T15:06:11.996Z,37.66
2023-07-08T15:08:39.703Z,36.47
2023-07-08T15:11:08.239Z,39.27
2023-07-08T15:13:36.209Z,40.35
2023-07-08T15:16:03.539Z,39.20
2023-07-08T15:18:30.982Z,36.42
2023-07-08T15:20:58.486Z,38.22
2023-07-08T15:23:26.353Z,36.93
2023-07-08T15:25:54.997Z,36.26
2023-07-08T15:28:49.224Z,37.99
2023-07-08T15:31:27.296Z,36.10
2023-07-08T15:33:55.007Z,37.41
2023-07-08T15:36:22.224Z,37.20
2023-07-08T15:38:49.468Z,37.09
2023-07-08T15:41:26.854Z,36.43
2023-07-08T15:43:57.273Z,36.54
2023-07-08T15:46:35.677Z,34.74
2023-07-08T15:49:31.541Z,37.81
2023-07-08T15:51:58.922Z,37.58
2023-07-08T15:54:26.242Z,37.02
2023-07-08T15:56:55.420Z,36.97
2023-07-08T15:59:29.143Z,35.50
2023-07-08T16:02:17.326Z,34.79
2023-07-08T16:04:44.691Z,37.79
2023-07-08T16:07:11.898Z,36.20
2023-07-08T16:09:39.084Z,35.40
2023-07-08T16:12:07.322Z,33.29
2023-07-08T16:14:34.687Z,33.76
2023-07-08T16:17:01.961Z,34.29
2023-07-08T16:19:30.932Z,35.72
2023-07-08T16:21:58.096Z,37.03
2023-07-08T16:24:25.264Z,36.24
2023-07-08T16:26:52.450Z,34.12
2023-07-08T16:29:19.743Z,34.01
2023-07-08T16:31:48.019Z,34.83
2023-07-08T16:34:15.747Z,35.02
2023-07-08T16:36:42.961Z,34.13
2023-07-08T16:39:10.249Z,36.33
2023-07-08T16:41:38.515Z,35.75
2023-07-08T16:44:17.110Z,34.70
2023-07-08T16:46:45.439Z,35.93
2023-07-08T16:49:14.048Z,36.86
2023-07-08T16:51:41.480Z,37.37
2023-07-08T16:54:17.799Z,35.46
2023-07-08T16:56:48.109Z,35.33
2023-07-08T16:59:17.531Z,36.31
2023-07-08T17:01:47.760Z,36.14
2023-07-08T17:04:15.931Z,38.02
2023-07-08T17:06:43.207Z,35.68
2023-07-08T17:09:13.499Z,36.75
2023-07-08T17:11:41.473Z,36.33
2023-07-08T17:14:10.041Z,36.83
2023-07-08T17:16:38.841Z,36.29
2023-07-08T17:19:06.110Z,36.53
2023-07-08T17:21:33.370Z,35.87
2023-07-08T17:24:00.623Z,34.44
2023-07-08T17:26:27.844Z,35.75
2023-07-08T17:28:55.147Z,36.02
2023-07-08T17:34:01.852Z,33.93
2023-07-08T17:36:37.997Z,32.24
2023-07-08T17:39:05.223Z,32.18
2023-07-08T17:41:32.488Z,31.93
2023-07-08T17:43:59.772Z,31.80
2023-07-08T17:46:29.902Z,31.93
2023-07-08T17:49:00.359Z,31.82
2023-07-08T17:51:35.542Z,32.09
2023-07-08T17:54:03.332Z,31.72
2023-07-08T17:56:57.912Z,31.70
2023-07-08T17:59:27.119Z,31.66
2023-07-08T18:01:54.518Z,32.08
2023-07-08T18:04:21.841Z,31.98
2023-07-08T18:06:49.421Z,31.49
2023-07-08T18:09:16.639Z,31.32
2023-07-08T18:11:47.937Z,31.07
2023-07-08T18:14:15.305Z,30.71
2023-07-08T18:16:44.792Z,30.48
2023-07-08T18:19:12.276Z,30.45
2023-07-08T18:21:39.546Z,30.61
2023-07-08T18:24:13.060Z,30.62
2023-07-08T18:26:40.725Z,30.46
2023-07-08T18:29:12.231Z,30.25
2023-07-08T18:31:41.305Z,30.56
2023-07-08T18:34:09.160Z,30.79
2023-07-08T18:36:37.649Z,30.46
2023-07-08T18:39:05.935Z,30.18
2023-07-08T18:41:47.730Z,30.23
2023-07-08T18:44:31.934Z,30.33
2023-07-08T18:46:59.423Z,29.86
2023-07-08T18:49:26.917Z,29.77
2023-07-08T18:51:55.229Z,29.80
2023-07-08T18:54:23.080Z,29.82
2023-07-08T18:56:50.866Z,29.69
2023-07-08T18:59:18.001Z,29.55
2023-07-08T19:01:49.373Z,29.46
2023-07-08T19:04:27.860Z,29.34
2023-07-08T19:06:58.436Z,29.14
2023-07-08T19:09:26.106Z,29.06
2023-07-08T19:11:53.447Z,28.99
2023-07-08T19:14:20.733Z,29.11
2023-07-08T19:16:48.986Z,29.13
2023-07-08T19:19:17.594Z,28.98
2023-07-08T19:21:45.636Z,28.93
2023-07-08T19:24:24.201Z,28.84
2023-07-08T19:26:55.798Z,28.80
2023-07-08T19:29:23.112Z,28.81
2023-07-08T19:31:50.448Z,28.74
2023-07-08T19:34:17.993Z,28.74
2023-07-08T19:36:45.319Z,28.69
2023-07-08T19:39:12.611Z,28.70
2023-07-08T19:41:40.335Z,28.56
2023-07-08T19:44:10.537Z,28.46
2023-07-08T19:46:38.990Z,28.33
2023-07-08T19:49:07.664Z,28.27
2023-07-08T19:51:34.843Z,28.31
2023-07-08T19:54:02.145Z,28.21
2023-07-08T19:56:30.512Z,28.19
2023-07-08T19:58:57.837Z,28.30
2023-07-08T20:01:25.066Z,28.37
2023-07-08T20:03:52.369Z,28.25
2023-07-08T20:06:24.438Z,28.16
2023-07-08T20:08:52.848Z,28.01
2023-07-08T20:11:20.555Z,27.88
2023-07-08T20:13:48.238Z,27.81
2023-07-08T20:16:26.484Z,27.72
2023-07-08T20:18:56.663Z,27.62
2023-07-08T20:21:25.786Z,27.53
2023-07-08T20:23:53.691Z,27.45
2023-07-08T20:26:32.719Z,27.35
2023-07-08T20:29:00.886Z,27.27
2023-07-08T20:31:29.026Z,27.15
2023-07-08T20:33:56.355Z,27.02
2023-07-08T20:36:27.443Z,26.89
2023-07-08T20:38:54.725Z,26.81
2023-07-08T20:41:21.961Z,26.67
2023-07-08T20:43:49.193Z,26.51
2023-07-08T20:46:24.579Z,26.40
2023-07-08T20:48:56.736Z,26.29
2023-07-08T20:51:25.032Z,26.17
2023-07-08T20:53:54.681Z,26.15
2023-07-08T20:56:31.978Z,26.17
2023-07-08T20:59:01.107Z,26.22
2023-07-08T21:01:33.070Z,26.21
2023-07-08T21:04:01.692Z,26.18
2023-07-08T21:06:33.213Z,26.14
2023-07-08T21:09:01.482Z,26.09
2023-07-08T21:11:29.096Z,26.04
2023-07-08T21:13:57.325Z,26.03
2023-07-08T21:16:28.250Z,26.03
2023-07-08T21:18:57.410Z,25.98
2023-07-08T21:21:25.477Z,25.89
2023-07-08T21:23:53.473Z,25.79
2023-07-08T21:26:31.294Z,25.75
2023-07-08T21:29:02.184Z,25.71
2023-07-08T21:31:31.272Z,25.71
2023-07-08T21:33:58.679Z,25.63
2023-07-08T21:36:35.243Z,25.51
2023-07-08T21:39:27.378Z,25.36
2023-07-08T21:41:54.577Z,25.27
2023-07-08T21:44:21.933Z,25.25
2023-07-08T21:46:49.460Z,25.28
2023-07-08T21:49:19.070Z,25.18
2023-07-08T21:51:47.374Z,25.11
2023-07-08T21:54:15.116Z,25.07
2023-07-08T21:56:42.455Z,25.13
2023-07-08T21:59:25.033Z,25.21
2023-07-08T22:01:52.479Z,25.26
2023-07-08T22:04:22.951Z,25.20
2023-07-08T22:06:50.223Z,25.12
2023-07-08T22:09:17.435Z,25.12
2023-07-08T22:11:44.636Z,25.10
2023-07-08T22:14:13.135Z,25.09
2023-07-08T22:16:40.807Z,25.11
2023-07-08T22:19:08.115Z,25.03
2023-07-08T22:21:39.842Z,24.94
2023-07-08T22:24:10.159Z,24.89
2023-07-08T22:26:42.333Z,24.83
2023-07-08T22:29:10.535Z,24.78
2023-07-08T22:31:42.853Z,24.76
2023-07-08T22:34:19.908Z,24.73
2023-07-08T22:36:47.746Z,24.71
2023-07-08T22:39:15.205Z,24.70
2023-07-08T22:41:48.357Z,24.68
2023-07-08T22:44:17.891Z,24.60
2023-07-08T22:46:46.997Z,24.53
2023-07-08T22:49:24.089Z,24.49
2023-07-08T22:52:01.969Z,24.44
2023-07-08T22:54:29.882Z,24.41
2023-07-08T22:56:57.652Z,24.36
2023-07-08T22:59:25.295Z,24.35
2023-07-08T23:01:52.741Z,24.34
2023-07-08T23:04:19.973Z,24.32
2023-07-08T23:06:47.222Z,24.25
2023-07-08T23:09:18.466Z,24.21
2023-07-08T23:11:45.762Z,24.16
2023-07-08T23:14:13.295Z,24.08
2023-07-08T23:16:40.963Z,24.03
2023-07-08T23:19:12.579Z,23.99
2023-07-08T23:21:41.387Z,23.90
2023-07-08T23:24:08.864Z,23.86
2023-07-08T23:26:42.489Z,23.84
2023-07-08T23:29:22.499Z,23.81
2023-07-08T23:31:51.376Z,23.78
2023-07-08T23:34:19.373Z,23.78
2023-07-08T23:36:50.256Z,23.79
2023-07-08T23:39:25.710Z,23.82
2023-07-08T23:41:53.667Z,23.76
2023-07-08T23:44:22.579Z,23.68
2023-07-08T23:46:56.209Z,23.67
2023-07-08T23:49:35.070Z,23.58
2023-07-08T23:52:03.685Z,23.56
2023-07-08T23:54:36.649Z,23.50
2023-07-08T23:57:12.891Z,23.53
2023-07-08T23:59:51.890Z,23.55
